sensor_id;sensor_type;location;lat;lon;timestamp;P1;durP1;ratioP1;P2;durP2;ratioP2
76155;SDS011;64906;51.290;7.348;2023-07-28T00:01:28;11.60;;;6.88;;
76155;SDS011;64906;51.290;7.348;2023-07-28T00:03:53;11.63;;;7.13;;
76155;SDS011;64906;51.290;7.348;2023-07-28T00:06:18;12.70;;;7.13;;
76155;SDS011;64906;51.290;7.348;2023-07-28T00:08:44;10.50;;;6.73;;
76155;SDS011;64906;51.290;7.348;2023-07-28T00:11:10;10.90;;;6.40;;
76155;SDS011;64906;51.290;7.348;2023-07-28T00:13:37;11.25;;;6.78;;
76155;SDS011;64906;51.290;7.348;2023-07-28T00:16:03;12.30;;;7.18;;
76155;SDS011;64906;51.290;7.348;2023-07-28T00:18:28;9.85;;;6.25;;
76155;SDS011;64906;51.290;7.348;2023-07-28T00:20:53;10.37;;;6.23;;
76155;SDS011;64906;51.290;7.348;2023-07-28T00:23:19;10.87;;;6.20;;
76155;SDS011;64906;51.290;7.348;2023-07-28T00:25:44;10.20;;;6.03;;
76155;SDS011;64906;51.290;7.348;2023-07-28T00:30:41;11.27;;;6.67;;
76155;SDS011;64906;51.290;7.348;2023-07-28T00:33:06;10.77;;;6.37;;
76155;SDS011;64906;51.290;7.348;2023-07-28T00:35:32;10.57;;;6.33;;
76155;SDS011;64906;51.290;7.348;2023-07-28T00:37:57;11.60;;;6.85;;
76155;SDS011;64906;51.290;7.348;2023-07-28T00:40:23;10.77;;;6.00;;
76155;SDS011;64906;51.290;7.348;2023-07-28T00:42:48;10.43;;;6.28;;
76155;SDS011;64906;51.290;7.348;2023-07-28T00:45:14;10.02;;;6.22;;
76155;SDS011;64906;51.290;7.348;2023-07-28T00:47:39;10.87;;;6.33;;
76155;SDS011;64906;51.290;7.348;2023-07-28T00:50:06;9.95;;;5.88;;
76155;SDS011;64906;51.290;7.348;2023-07-28T00:52:33;10.02;;;6.18;;
76155;SDS011;64906;51.290;7.348;2023-07-28T00:54:58;9.82;;;5.90;;
76155;SDS011;64906;51.290;7.348;2023-07-28T00:57:24;9.77;;;6.00;;
76155;SDS011;64906;51.290;7.348;2023-07-28T00:59:49;9.47;;;5.63;;
76155;SDS011;64906;51.290;7.348;2023-07-28T01:02:15;10.60;;;6.03;;
76155;SDS011;64906;51.290;7.348;2023-07-28T01:04:40;8.87;;;5.70;;
76155;SDS011;64906;51.290;7.348;2023-07-28T01:07:09;10.07;;;5.85;;
76155;SDS011;64906;51.290;7.348;2023-07-28T01:10:13;9.10;;;5.40;;
76155;SDS011;64906;51.290;7.348;2023-07-28T01:12:35;9.73;;;5.38;;
76155;SDS011;64906;51.290;7.348;2023-07-28T01:15:00;10.63;;;6.30;;
76155;SDS011;64906;51.290;7.348;2023-07-28T01:17:26;9.40;;;5.40;;
76155;SDS011;64906;51.290;7.348;2023-07-28T01:19:51;9.68;;;5.85;;
76155;SDS011;64906;51.290;7.348;2023-07-28T01:22:36;8.85;;;5.40;;
76155;SDS011;64906;51.290;7.348;2023-07-28T01:26:13;9.25;;;5.40;;
76155;SDS011;64906;51.290;7.348;2023-07-28T01:28:30;9.38;;;5.07;;
76155;SDS011;64906;51.290;7.348;2023-07-28T01:30:56;9.07;;;5.25;;
76155;SDS011;64906;51.290;7.348;2023-07-28T01:33:22;8.80;;;5.50;;
76155;SDS011;64906;51.290;7.348;2023-07-28T01:35:47;9.43;;;5.50;;
76155;SDS011;64906;51.290;7.348;2023-07-28T01:38:13;8.65;;;5.50;;
76155;SDS011;64906;51.290;7.348;2023-07-28T01:40:38;8.95;;;5.65;;
76155;SDS011;64906;51.290;7.348;2023-07-28T01:43:03;7.87;;;4.77;;
76155;SDS011;64906;51.290;7.348;2023-07-28T01:45:29;8.63;;;4.87;;
76155;SDS011;64906;51.290;7.348;2023-07-28T01:47:54;8.53;;;5.10;;
76155;SDS011;64906;51.290;7.348;2023-07-28T01:50:19;8.93;;;5.23;;
76155;SDS011;64906;51.290;7.348;2023-07-28T01:52:45;8.87;;;5.00;;
76155;SDS011;64906;51.290;7.348;2023-07-28T01:55:10;8.07;;;4.75;;
76155;SDS011;64906;51.290;7.348;2023-07-28T01:57:38;8.80;;;5.20;;
76155;SDS011;64906;51.290;7.348;2023-07-28T02:00:04;8.80;;;4.70;;
76155;SDS011;64906;51.290;7.348;2023-07-28T02:02:30;9.30;;;5.53;;
76155;SDS011;64906;51.290;7.348;2023-07-28T02:04:55;7.63;;;4.80;;
76155;SDS011;64906;51.290;7.348;2023-07-28T02:07:21;8.70;;;4.87;;
76155;SDS011;64906;51.290;7.348;2023-07-28T02:09:46;8.53;;;4.83;;
76155;SDS011;64906;51.290;7.348;2023-07-28T02:12:11;7.80;;;4.80;;
76155;SDS011;64906;51.290;7.348;2023-07-28T02:14:36;8.53;;;5.27;;
76155;SDS011;64906;51.290;7.348;2023-07-28T02:17:02;8.10;;;4.87;;
76155;SDS011;64906;51.290;7.348;2023-07-28T02:19:27;7.80;;;4.78;;
76155;SDS011;64906;51.290;7.348;2023-07-28T02:21:52;8.93;;;4.67;;
76155;SDS011;64906;51.290;7.348;2023-07-28T02:24:18;7.83;;;4.63;;
76155;SDS011;64906;51.290;7.348;2023-07-28T02:26:43;7.70;;;4.70;;
76155;SDS011;64906;51.290;7.348;2023-07-28T02:29:08;7.93;;;4.60;;
76155;SDS011;64906;51.290;7.348;2023-07-28T02:31:33;7.90;;;4.77;;
76155;SDS011;64906;51.290;7.348;2023-07-28T02:33:59;8.15;;;4.63;;
76155;SDS011;64906;51.290;7.348;2023-07-28T02:36:24;8.30;;;4.60;;
76155;SDS011;64906;51.290;7.348;2023-07-28T02:38:50;7.50;;;4.33;;
76155;SDS011;64906;51.290;7.348;2023-07-28T02:41:15;9.00;;;4.37;;
76155;SDS011;64906;51.290;7.348;2023-07-28T02:43:40;8.50;;;4.53;;
76155;SDS011;64906;51.290;7.348;2023-07-28T02:46:06;7.30;;;4.20;;
76155;SDS011;64906;51.290;7.348;2023-07-28T02:48:31;7.55;;;4.65;;
76155;SDS011;64906;51.290;7.348;2023-07-28T02:50:57;8.30;;;4.27;;
76155;SDS011;64906;51.290;7.348;2023-07-28T02:53:22;7.27;;;4.40;;
76155;SDS011;64906;51.290;7.348;2023-07-28T02:55:47;7.33;;;4.20;;
76155;SDS011;64906;51.290;7.348;2023-07-28T02:58:13;6.90;;;3.92;;
76155;SDS011;64906;51.290;7.348;2023-07-28T03:00:39;7.70;;;4.40;;
76155;SDS011;64906;51.290;7.348;2023-07-28T03:03:09;7.97;;;4.53;;
76155;SDS011;64906;51.290;7.348;2023-07-28T03:05:36;7.40;;;4.40;;
76155;SDS011;64906;51.290;7.348;2023-07-28T03:08:03;7.78;;;4.35;;
76155;SDS011;64906;51.290;7.348;2023-07-28T03:10:28;7.95;;;4.40;;
76155;SDS011;64906;51.290;7.348;2023-07-28T03:12:54;7.27;;;4.10;;
76155;SDS011;64906;51.290;7.348;2023-07-28T03:15:20;8.05;;;4.28;;
76155;SDS011;64906;51.290;7.348;2023-07-28T03:17:47;7.03;;;4.18;;
76155;SDS011;64906;51.290;7.348;2023-07-28T03:20:12;7.60;;;4.13;;
76155;SDS011;64906;51.290;7.348;2023-07-28T03:22:38;7.20;;;4.00;;
76155;SDS011;64906;51.290;7.348;2023-07-28T03:25:03;7.53;;;4.70;;
76155;SDS011;64906;51.290;7.348;2023-07-28T03:27:29;7.80;;;4.47;;
76155;SDS011;64906;51.290;7.348;2023-07-28T03:29:54;6.40;;;3.50;;
76155;SDS011;64906;51.290;7.348;2023-07-28T03:32:19;6.37;;;3.73;;
76155;SDS011;64906;51.290;7.348;2023-07-28T03:34:45;6.67;;;4.03;;
76155;SDS011;64906;51.290;7.348;2023-07-28T03:37:10;6.90;;;3.63;;
76155;SDS011;64906;51.290;7.348;2023-07-28T03:39:35;7.50;;;3.93;;
76155;SDS011;64906;51.290;7.348;2023-07-28T03:42:00;7.20;;;4.30;;
76155;SDS011;64906;51.290;7.348;2023-07-28T03:44:26;6.60;;;4.10;;
76155;SDS011;64906;51.290;7.348;2023-07-28T03:46:51;7.07;;;4.00;;
76155;SDS011;64906;51.290;7.348;2023-07-28T03:49:17;6.60;;;3.67;;
76155;SDS011;64906;51.290;7.348;2023-07-28T03:51:42;6.57;;;3.70;;
76155;SDS011;64906;51.290;7.348;2023-07-28T03:54:08;6.88;;;3.78;;
76155;SDS011;64906;51.290;7.348;2023-07-28T03:56:33;6.90;;;3.67;;
76155;SDS011;64906;51.290;7.348;2023-07-28T03:58:59;6.43;;;3.60;;
76155;SDS011;64906;51.290;7.348;2023-07-28T04:01:24;5.83;;;3.30;;
76155;SDS011;64906;51.290;7.348;2023-07-28T04:03:49;6.97;;;3.83;;
76155;SDS011;64906;51.290;7.348;2023-07-28T04:06:15;6.27;;;3.50;;
76155;SDS011;64906;51.290;7.348;2023-07-28T04:08:40;6.07;;;3.50;;
76155;SDS011;64906;51.290;7.348;2023-07-28T04:11:05;6.17;;;3.43;;
76155;SDS011;64906;51.290;7.348;2023-07-28T04:13:31;6.43;;;3.38;;
76155;SDS011;64906;51.290;7.348;2023-07-28T04:15:56;6.63;;;3.72;;
76155;SDS011;64906;51.290;7.348;2023-07-28T04:18:22;6.28;;;3.40;;
76155;SDS011;64906;51.290;7.348;2023-07-28T04:20:48;5.30;;;3.00;;
76155;SDS011;64906;51.290;7.348;2023-07-28T04:23:13;6.20;;;3.42;;
76155;SDS011;64906;51.290;7.348;2023-07-28T04:25:39;6.37;;;3.50;;
76155;SDS011;64906;51.290;7.348;2023-07-28T04:28:04;6.43;;;3.67;;
76155;SDS011;64906;51.290;7.348;2023-07-28T04:30:29;6.67;;;3.47;;
76155;SDS011;64906;51.290;7.348;2023-07-28T04:32:54;6.37;;;3.60;;
76155;SDS011;64906;51.290;7.348;2023-07-28T04:35:20;5.63;;;3.23;;
76155;SDS011;64906;51.290;7.348;2023-07-28T04:37:45;6.97;;;3.75;;
76155;SDS011;64906;51.290;7.348;2023-07-28T04:40:10;6.27;;;3.57;;
76155;SDS011;64906;51.290;7.348;2023-07-28T04:42:36;6.78;;;3.60;;
76155;SDS011;64906;51.290;7.348;2023-07-28T04:45:02;7.53;;;3.53;;
76155;SDS011;64906;51.290;7.348;2023-07-28T04:47:28;6.53;;;3.80;;
76155;SDS011;64906;51.290;7.348;2023-07-28T04:49:53;9.02;;;4.57;;
76155;SDS011;64906;51.290;7.348;2023-07-28T04:52:19;8.77;;;4.70;;
76155;SDS011;64906;51.290;7.348;2023-07-28T04:54:44;9.93;;;5.60;;
76155;SDS011;64906;51.290;7.348;2023-07-28T04:57:09;9.63;;;5.70;;
76155;SDS011;64906;51.290;7.348;2023-07-28T04:59:35;12.03;;;6.50;;
76155;SDS011;64906;51.290;7.348;2023-07-28T05:02:00;11.07;;;6.25;;
76155;SDS011;64906;51.290;7.348;2023-07-28T05:04:25;10.73;;;6.30;;
76155;SDS011;64906;51.290;7.348;2023-07-28T05:06:51;11.70;;;7.17;;
76155;SDS011;64906;51.290;7.348;2023-07-28T05:09:16;10.90;;;6.07;;
76155;SDS011;64906;51.290;7.348;2023-07-28T05:11:41;10.67;;;6.17;;
76155;SDS011;64906;51.290;7.348;2023-07-28T05:14:07;9.93;;;5.93;;
76155;SDS011;64906;51.290;7.348;2023-07-28T05:16:33;10.32;;;5.78;;
76155;SDS011;64906;51.290;7.348;2023-07-28T05:18:59;8.20;;;5.28;;
76155;SDS011;64906;51.290;7.348;2023-07-28T05:21:24;10.13;;;5.45;;
76155;SDS011;64906;51.290;7.348;2023-07-28T05:23:50;8.57;;;5.10;;
76155;SDS011;64906;51.290;7.348;2023-07-28T05:26:15;8.43;;;4.72;;
76155;SDS011;64906;51.290;7.348;2023-07-28T05:28:40;9.17;;;5.50;;
76155;SDS011;64906;51.290;7.348;2023-07-28T05:31:06;8.80;;;5.20;;
76155;SDS011;64906;51.290;7.348;2023-07-28T05:33:31;7.97;;;4.50;;
76155;SDS011;64906;51.290;7.348;2023-07-28T05:36:03;8.07;;;4.43;;
76155;SDS011;64906;51.290;7.348;2023-07-28T05:38:29;7.78;;;4.65;;
76155;SDS011;64906;51.290;7.348;2023-07-28T05:40:58;8.23;;;4.60;;
76155;SDS011;64906;51.290;7.348;2023-07-28T05:43:26;8.10;;;4.93;;
76155;SDS011;64906;51.290;7.348;2023-07-28T05:45:55;8.20;;;4.80;;
76155;SDS011;64906;51.290;7.348;2023-07-28T05:48:21;7.68;;;4.47;;
76155;SDS011;64906;51.290;7.348;2023-07-28T05:50:47;8.40;;;4.85;;
76155;SDS011;64906;51.290;7.348;2023-07-28T05:53:12;8.07;;;4.40;;
76155;SDS011;64906;51.290;7.348;2023-07-28T05:55:38;9.15;;;4.93;;
76155;SDS011;64906;51.290;7.348;2023-07-28T05:58:04;8.70;;;5.10;;
76155;SDS011;64906;51.290;7.348;2023-07-28T06:00:30;7.65;;;4.80;;
76155;SDS011;64906;51.290;7.348;2023-07-28T06:02:55;8.65;;;4.80;;
76155;SDS011;64906;51.290;7.348;2023-07-28T06:05:20;7.57;;;4.37;;
76155;SDS011;64906;51.290;7.348;2023-07-28T06:07:46;8.10;;;4.67;;
76155;SDS011;64906;51.290;7.348;2023-07-28T06:10:11;7.83;;;4.60;;
76155;SDS011;64906;51.290;7.348;2023-07-28T06:12:36;8.00;;;4.28;;
76155;SDS011;64906;51.290;7.348;2023-07-28T06:15:02;8.13;;;4.53;;
76155;SDS011;64906;51.290;7.348;2023-07-28T06:17:28;7.18;;;4.50;;
76155;SDS011;64906;51.290;7.348;2023-07-28T06:19:53;8.02;;;4.53;;
76155;SDS011;64906;51.290;7.348;2023-07-28T06:22:19;7.30;;;4.20;;
76155;SDS011;64906;51.290;7.348;2023-07-28T06:24:44;7.85;;;4.63;;
76155;SDS011;64906;51.290;7.348;2023-07-28T06:27:10;8.05;;;4.53;;
76155;SDS011;64906;51.290;7.348;2023-07-28T06:29:35;7.47;;;4.38;;
76155;SDS011;64906;51.290;7.348;2023-07-28T06:32:01;6.75;;;3.78;;
76155;SDS011;64906;51.290;7.348;2023-07-28T06:34:26;7.30;;;4.05;;
76155;SDS011;64906;51.290;7.348;2023-07-28T06:36:52;7.87;;;4.23;;
76155;SDS011;64906;51.290;7.348;2023-07-28T06:39:17;6.72;;;4.03;;
76155;SDS011;64906;51.290;7.348;2023-07-28T06:41:42;7.38;;;4.00;;
76155;SDS011;64906;51.290;7.348;2023-07-28T06:44:08;6.97;;;4.00;;
76155;SDS011;64906;51.290;7.348;2023-07-28T06:46:33;6.93;;;3.73;;
76155;SDS011;64906;51.290;7.348;2023-07-28T06:48:59;7.85;;;4.32;;
76155;SDS011;64906;51.290;7.348;2023-07-28T06:51:24;7.78;;;4.28;;
76155;SDS011;64906;51.290;7.348;2023-07-28T06:53:50;7.55;;;4.07;;
76155;SDS011;64906;51.290;7.348;2023-07-28T06:56:15;8.55;;;4.72;;
76155;SDS011;64906;51.290;7.348;2023-07-28T06:58:41;8.27;;;4.03;;
76155;SDS011;64906;51.290;7.348;2023-07-28T07:01:06;7.30;;;4.13;;
76155;SDS011;64906;51.290;7.348;2023-07-28T07:03:33;7.15;;;3.97;;
76155;SDS011;64906;51.290;7.348;2023-07-28T07:05:59;7.07;;;4.20;;
76155;SDS011;64906;51.290;7.348;2023-07-28T07:08:24;7.67;;;4.37;;
76155;SDS011;64906;51.290;7.348;2023-07-28T07:10:52;7.20;;;4.13;;
76155;SDS011;64906;51.290;7.348;2023-07-28T07:13:18;7.35;;;4.05;;
76155;SDS011;64906;51.290;7.348;2023-07-28T07:15:43;7.30;;;4.13;;
76155;SDS011;64906;51.290;7.348;2023-07-28T07:18:09;6.80;;;4.13;;
76155;SDS011;64906;51.290;7.348;2023-07-28T07:20:35;7.32;;;4.43;;
76155;SDS011;64906;51.290;7.348;2023-07-28T07:23:01;6.70;;;4.03;;
76155;SDS011;64906;51.290;7.348;2023-07-28T07:25:26;6.75;;;3.90;;
76155;SDS011;64906;51.290;7.348;2023-07-28T07:27:52;6.80;;;3.85;;
76155;SDS011;64906;51.290;7.348;2023-07-28T07:30:17;8.30;;;4.50;;
76155;SDS011;64906;51.290;7.348;2023-07-28T07:32:42;7.28;;;4.18;;
76155;SDS011;64906;51.290;7.348;2023-07-28T07:35:08;7.57;;;4.15;;
76155;SDS011;64906;51.290;7.348;2023-07-28T07:37:34;7.30;;;4.03;;
76155;SDS011;64906;51.290;7.348;2023-07-28T07:39:59;7.17;;;4.30;;
76155;SDS011;64906;51.290;7.348;2023-07-28T07:42:30;6.65;;;3.80;;
76155;SDS011;64906;51.290;7.348;2023-07-28T07:45:06;6.80;;;3.92;;
76155;SDS011;64906;51.290;7.348;2023-07-28T07:47:32;7.03;;;3.88;;
76155;SDS011;64906;51.290;7.348;2023-07-28T07:49:57;7.13;;;4.20;;
76155;SDS011;64906;51.290;7.348;2023-07-28T07:52:23;6.40;;;3.70;;
76155;SDS011;64906;51.290;7.348;2023-07-28T07:54:48;6.67;;;3.93;;
76155;SDS011;64906;51.290;7.348;2023-07-28T07:57:14;6.13;;;3.50;;
76155;SDS011;64906;51.290;7.348;2023-07-28T07:59:39;7.90;;;4.18;;
76155;SDS011;64906;51.290;7.348;2023-07-28T08:02:05;8.73;;;4.33;;
76155;SDS011;64906;51.290;7.348;2023-07-28T08:04:31;6.93;;;3.67;;
76155;SDS011;64906;51.290;7.348;2023-07-28T08:06:56;6.28;;;3.53;;
76155;SDS011;64906;51.290;7.348;2023-07-28T08:09:22;6.35;;;3.30;;
76155;SDS011;64906;51.290;7.348;2023-07-28T08:11:47;6.63;;;3.80;;
76155;SDS011;64906;51.290;7.348;2023-07-28T08:14:13;7.20;;;3.90;;
76155;SDS011;64906;51.290;7.348;2023-07-28T08:16:39;7.15;;;3.92;;
76155;SDS011;64906;51.290;7.348;2023-07-28T08:19:04;6.63;;;3.53;;
76155;SDS011;64906;51.290;7.348;2023-07-28T08:21:29;6.82;;;3.75;;
76155;SDS011;64906;51.290;7.348;2023-07-28T08:23:56;5.88;;;3.40;;
76155;SDS011;64906;51.290;7.348;2023-07-28T08:26:21;7.75;;;3.95;;
76155;SDS011;64906;51.290;7.348;2023-07-28T08:28:46;6.17;;;3.57;;
76155;SDS011;64906;51.290;7.348;2023-07-28T08:31:12;6.27;;;3.63;;
76155;SDS011;64906;51.290;7.348;2023-07-28T08:33:37;7.22;;;4.00;;
76155;SDS011;64906;51.290;7.348;2023-07-28T08:36:02;6.33;;;3.67;;
76155;SDS011;64906;51.290;7.348;2023-07-28T08:38:28;6.55;;;3.65;;
76155;SDS011;64906;51.290;7.348;2023-07-28T08:40:53;6.53;;;3.43;;
76155;SDS011;64906;51.290;7.348;2023-07-28T08:43:21;6.72;;;3.80;;
76155;SDS011;64906;51.290;7.348;2023-07-28T08:45:46;6.35;;;3.35;;
76155;SDS011;64906;51.290;7.348;2023-07-28T08:48:12;6.07;;;3.57;;
76155;SDS011;64906;51.290;7.348;2023-07-28T08:50:37;6.30;;;3.45;;
76155;SDS011;64906;51.290;7.348;2023-07-28T08:53:02;6.57;;;3.57;;
76155;SDS011;64906;51.290;7.348;2023-07-28T08:55:28;5.93;;;3.30;;
76155;SDS011;64906;51.290;7.348;2023-07-28T08:57:53;6.80;;;3.63;;
76155;SDS011;64906;51.290;7.348;2023-07-28T09:00:18;5.90;;;3.50;;
76155;SDS011;64906;51.290;7.348;2023-07-28T09:02:44;6.13;;;3.63;;
76155;SDS011;64906;51.290;7.348;2023-07-28T09:05:16;6.18;;;3.50;;
76155;SDS011;64906;51.290;7.348;2023-07-28T09:07:43;5.82;;;3.35;;
76155;SDS011;64906;51.290;7.348;2023-07-28T09:10:08;6.70;;;3.70;;
76155;SDS011;64906;51.290;7.348;2023-07-28T09:12:34;6.47;;;3.25;;
76155;SDS011;64906;51.290;7.348;2023-07-28T09:14:59;5.70;;;3.00;;
76155;SDS011;64906;51.290;7.348;2023-07-28T09:17:24;6.00;;;3.17;;
76155;SDS011;64906;51.290;7.348;2023-07-28T09:19:54;5.13;;;3.00;;
76155;SDS011;64906;51.290;7.348;2023-07-28T09:22:20;6.50;;;3.63;;
76155;SDS011;64906;51.290;7.348;2023-07-28T09:24:47;6.30;;;3.40;;
76155;SDS011;64906;51.290;7.348;2023-07-28T09:27:25;5.53;;;3.10;;
76155;SDS011;64906;51.290;7.348;2023-07-28T09:29:52;6.55;;;3.63;;
76155;SDS011;64906;51.290;7.348;2023-07-28T09:32:30;6.18;;;3.20;;
76155;SDS011;64906;51.290;7.348;2023-07-28T09:35:11;5.82;;;3.20;;
76155;SDS011;64906;51.290;7.348;2023-07-28T09:37:38;5.63;;;3.20;;
76155;SDS011;64906;51.290;7.348;2023-07-28T09:40:10;5.20;;;2.92;;
76155;SDS011;64906;51.290;7.348;2023-07-28T09:42:41;5.40;;;3.17;;
76155;SDS011;64906;51.290;7.348;2023-07-28T09:45:07;5.05;;;2.90;;
76155;SDS011;64906;51.290;7.348;2023-07-28T09:47:35;6.28;;;3.40;;
76155;SDS011;64906;51.290;7.348;2023-07-28T09:50:05;5.50;;;2.80;;
76155;SDS011;64906;51.290;7.348;2023-07-28T09:52:34;5.40;;;2.80;;
76155;SDS011;64906;51.290;7.348;2023-07-28T09:55:09;5.80;;;3.20;;
76155;SDS011;64906;51.290;7.348;2023-07-28T09:57:39;5.90;;;3.20;;
76155;SDS011;64906;51.290;7.348;2023-07-28T10:00:10;6.10;;;3.10;;
76155;SDS011;64906;51.290;7.348;2023-07-28T10:02:38;5.10;;;2.90;;
76155;SDS011;64906;51.290;7.348;2023-07-28T10:05:07;5.68;;;3.10;;
76155;SDS011;64906;51.290;7.348;2023-07-28T10:07:35;5.55;;;2.95;;
76155;SDS011;64906;51.290;7.348;2023-07-28T10:10:05;5.72;;;3.10;;
76155;SDS011;64906;51.290;7.348;2023-07-28T10:12:46;6.07;;;2.95;;
76155;SDS011;64906;51.290;7.348;2023-07-28T10:15:14;5.32;;;2.90;;
76155;SDS011;64906;51.290;7.348;2023-07-28T10:17:44;5.60;;;3.10;;
76155;SDS011;64906;51.290;7.348;2023-07-28T10:20:28;5.35;;;2.83;;
76155;SDS011;64906;51.290;7.348;2023-07-28T10:23:01;5.25;;;2.85;;
76155;SDS011;64906;51.290;7.348;2023-07-28T10:25:47;6.85;;;3.15;;
76155;SDS011;64906;51.290;7.348;2023-07-28T10:28:25;5.55;;;2.95;;
76155;SDS011;64906;51.290;7.348;2023-07-28T10:30:54;5.35;;;3.00;;
76155;SDS011;64906;51.290;7.348;2023-07-28T10:36:20;5.20;;;2.75;;
76155;SDS011;64906;51.290;7.348;2023-07-28T10:41:29;5.30;;;2.90;;
76155;SDS011;64906;51.290;7.348;2023-07-28T10:43:56;5.80;;;3.13;;
76155;SDS011;64906;51.290;7.348;2023-07-28T10:46:21;5.40;;;2.95;;
76155;SDS011;64906;51.290;7.348;2023-07-28T10:48:48;4.65;;;2.58;;
76155;SDS011;64906;51.290;7.348;2023-07-28T10:51:24;5.57;;;3.13;;
76155;SDS011;64906;51.290;7.348;2023-07-28T10:53:57;5.45;;;2.90;;
76155;SDS011;64906;51.290;7.348;2023-07-28T10:56:22;6.72;;;2.90;;
76155;SDS011;64906;51.290;7.348;2023-07-28T10:59:01;4.80;;;2.30;;
76155;SDS011;64906;51.290;7.348;2023-07-28T11:01:36;5.18;;;3.03;;
76155;SDS011;64906;51.290;7.348;2023-07-28T11:04:36;4.75;;;2.58;;
76155;SDS011;64906;51.290;7.348;2023-07-28T11:06:55;4.20;;;2.28;;
76155;SDS011;64906;51.290;7.348;2023-07-28T11:09:22;4.07;;;2.40;;
76155;SDS011;64906;51.290;7.348;2023-07-28T11:11:49;4.35;;;2.40;;
76155;SDS011;64906;51.290;7.348;2023-07-28T11:14:16;5.93;;;3.13;;
76155;SDS011;64906;51.290;7.348;2023-07-28T11:16:42;4.55;;;2.33;;
76155;SDS011;64906;51.290;7.348;2023-07-28T11:19:10;4.93;;;2.85;;
76155;SDS011;64906;51.290;7.348;2023-07-28T11:21:37;4.65;;;2.50;;
76155;SDS011;64906;51.290;7.348;2023-07-28T11:24:04;5.03;;;2.60;;
76155;SDS011;64906;51.290;7.348;2023-07-28T11:26:30;4.75;;;2.45;;
76155;SDS011;64906;51.290;7.348;2023-07-28T11:28:55;4.40;;;2.30;;
76155;SDS011;64906;51.290;7.348;2023-07-28T11:31:24;5.22;;;2.60;;
76155;SDS011;64906;51.290;7.348;2023-07-28T11:33:50;5.13;;;2.70;;
76155;SDS011;64906;51.290;7.348;2023-07-28T11:36:23;4.78;;;2.60;;
76155;SDS011;64906;51.290;7.348;2023-07-28T11:38:49;4.85;;;2.63;;
76155;SDS011;64906;51.290;7.348;2023-07-28T11:41:14;4.70;;;2.38;;
76155;SDS011;64906;51.290;7.348;2023-07-28T11:43:40;5.00;;;2.65;;
76155;SDS011;64906;51.290;7.348;2023-07-28T11:49:15;4.65;;;2.45;;
76155;SDS011;64906;51.290;7.348;2023-07-28T11:51:47;4.85;;;2.40;;
76155;SDS011;64906;51.290;7.348;2023-07-28T11:54:15;5.50;;;3.05;;
76155;SDS011;64906;51.290;7.348;2023-07-28T11:56:45;4.95;;;2.63;;
76155;SDS011;64906;51.290;7.348;2023-07-28T11:59:11;4.80;;;2.60;;
76155;SDS011;64906;51.290;7.348;2023-07-28T12:04:38;4.80;;;2.85;;
76155;SDS011;64906;51.290;7.348;2023-07-28T12:09:31;5.75;;;2.88;;
76155;SDS011;64906;51.290;7.348;2023-07-28T12:12:21;4.97;;;2.70;;
76155;SDS011;64906;51.290;7.348;2023-07-28T12:14:48;5.28;;;2.70;;
76155;SDS011;64906;51.290;7.348;2023-07-28T12:17:17;5.00;;;2.70;;
76155;SDS011;64906;51.290;7.348;2023-07-28T12:20:03;5.93;;;2.83;;
76155;SDS011;64906;51.290;7.348;2023-07-28T12:22:42;4.07;;;2.20;;
76155;SDS011;64906;51.290;7.348;2023-07-28T12:25:09;4.50;;;2.40;;
76155;SDS011;64906;51.290;7.348;2023-07-28T12:27:35;5.05;;;2.55;;
76155;SDS011;64906;51.290;7.348;2023-07-28T12:30:01;5.00;;;2.70;;
76155;SDS011;64906;51.290;7.348;2023-07-28T12:32:26;4.70;;;2.70;;
76155;SDS011;64906;51.290;7.348;2023-07-28T12:34:52;4.95;;;2.70;;
76155;SDS011;64906;51.290;7.348;2023-07-28T12:37:18;4.68;;;2.25;;
76155;SDS011;64906;51.290;7.348;2023-07-28T12:39:44;5.18;;;2.80;;
76155;SDS011;64906;51.290;7.348;2023-07-28T12:42:09;5.13;;;2.63;;
76155;SDS011;64906;51.290;7.348;2023-07-28T12:44:36;4.53;;;2.38;;
76155;SDS011;64906;51.290;7.348;2023-07-28T12:47:02;4.05;;;2.15;;
76155;SDS011;64906;51.290;7.348;2023-07-28T12:49:28;4.22;;;2.45;;
76155;SDS011;64906;51.290;7.348;2023-07-28T12:51:55;5.10;;;2.42;;
76155;SDS011;64906;51.290;7.348;2023-07-28T12:54:21;4.72;;;2.40;;
76155;SDS011;64906;51.290;7.348;2023-07-28T12:56:47;4.93;;;2.67;;
76155;SDS011;64906;51.290;7.348;2023-07-28T12:59:13;4.30;;;2.20;;
76155;SDS011;64906;51.290;7.348;2023-07-28T13:01:39;4.80;;;2.35;;
76155;SDS011;64906;51.290;7.348;2023-07-28T13:04:04;4.30;;;2.40;;
76155;SDS011;64906;51.290;7.348;2023-07-28T13:06:29;4.53;;;2.23;;
76155;SDS011;64906;51.290;7.348;2023-07-28T13:08:54;4.77;;;2.40;;
76155;SDS011;64906;51.290;7.348;2023-07-28T13:11:20;4.03;;;2.10;;
76155;SDS011;64906;51.290;7.348;2023-07-28T13:13:45;4.63;;;2.50;;
76155;SDS011;64906;51.290;7.348;2023-07-28T13:16:10;4.50;;;2.53;;
76155;SDS011;64906;51.290;7.348;2023-07-28T13:18:36;4.07;;;2.10;;
76155;SDS011;64906;51.290;7.348;2023-07-28T13:21:01;4.43;;;2.30;;
76155;SDS011;64906;51.290;7.348;2023-07-28T13:23:26;4.27;;;2.03;;
76155;SDS011;64906;51.290;7.348;2023-07-28T13:25:52;4.53;;;2.33;;
76155;SDS011;64906;51.290;7.348;2023-07-28T13:28:18;4.13;;;2.17;;
76155;SDS011;64906;51.290;7.348;2023-07-28T13:30:43;4.45;;;2.30;;
76155;SDS011;64906;51.290;7.348;2023-07-28T13:33:08;4.40;;;2.07;;
76155;SDS011;64906;51.290;7.348;2023-07-28T13:35:34;3.83;;;2.10;;
76155;SDS011;64906;51.290;7.348;2023-07-28T13:37:59;4.47;;;2.37;;
76155;SDS011;64906;51.290;7.348;2023-07-28T13:40:24;4.63;;;2.17;;
76155;SDS011;64906;51.290;7.348;2023-07-28T13:42:49;4.20;;;2.17;;
76155;SDS011;64906;51.290;7.348;2023-07-28T13:45:15;4.40;;;2.27;;
76155;SDS011;64906;51.290;7.348;2023-07-28T13:47:40;3.92;;;2.00;;
76155;SDS011;64906;51.290;7.348;2023-07-28T13:50:05;4.63;;;2.37;;
76155;SDS011;64906;51.290;7.348;2023-07-28T13:52:32;3.92;;;2.10;;
76155;SDS011;64906;51.290;7.348;2023-07-28T13:54:57;3.95;;;2.10;;
76155;SDS011;64906;51.290;7.348;2023-07-28T13:57:22;4.20;;;2.17;;
76155;SDS011;64906;51.290;7.348;2023-07-28T13:59:48;4.80;;;2.33;;
76155;SDS011;64906;51.290;7.348;2023-07-28T14:02:13;4.00;;;2.10;;
76155;SDS011;64906;51.290;7.348;2023-07-28T14:04:39;4.43;;;2.30;;
76155;SDS011;64906;51.290;7.348;2023-07-28T14:07:04;4.63;;;2.30;;
76155;SDS011;64906;51.290;7.348;2023-07-28T14:09:30;5.10;;;2.30;;
76155;SDS011;64906;51.290;7.348;2023-07-28T14:11:55;4.57;;;2.08;;
76155;SDS011;64906;51.290;7.348;2023-07-28T14:14:20;3.97;;;1.97;;
76155;SDS011;64906;51.290;7.348;2023-07-28T14:16:46;4.50;;;2.35;;
76155;SDS011;64906;51.290;7.348;2023-07-28T14:19:11;3.90;;;1.83;;
76155;SDS011;64906;51.290;7.348;2023-07-28T14:21:37;4.00;;;2.00;;
76155;SDS011;64906;51.290;7.348;2023-07-28T14:24:03;4.57;;;2.08;;
76155;SDS011;64906;51.290;7.348;2023-07-28T14:26:32;4.00;;;1.95;;
76155;SDS011;64906;51.290;7.348;2023-07-28T14:28:57;3.75;;;1.90;;
76155;SDS011;64906;51.290;7.348;2023-07-28T14:31:22;4.50;;;2.03;;
76155;SDS011;64906;51.290;7.348;2023-07-28T14:33:47;4.20;;;2.00;;
76155;SDS011;64906;51.290;7.348;2023-07-28T14:36:13;4.07;;;2.03;;
76155;SDS011;64906;51.290;7.348;2023-07-28T14:38:38;3.67;;;1.80;;
76155;SDS011;64906;51.290;7.348;2023-07-28T14:41:04;4.00;;;2.03;;
76155;SDS011;64906;51.290;7.348;2023-07-28T14:43:29;4.57;;;2.10;;
76155;SDS011;64906;51.290;7.348;2023-07-28T14:45:54;4.20;;;1.90;;
76155;SDS011;64906;51.290;7.348;2023-07-28T14:48:20;3.90;;;2.10;;
76155;SDS011;64906;51.290;7.348;2023-07-28T14:50:45;3.47;;;1.70;;
76155;SDS011;64906;51.290;7.348;2023-07-28T14:53:30;4.43;;;2.13;;
76155;SDS011;64906;51.290;7.348;2023-07-28T14:56:03;3.83;;;1.88;;
76155;SDS011;64906;51.290;7.348;2023-07-28T14:58:29;4.28;;;2.22;;
76155;SDS011;64906;51.290;7.348;2023-07-28T15:00:55;3.80;;;1.90;;